<?xml version="1.0" encoding="utf-8"?>
<gpx xmlns:xsi="http://www.w3.org/2001/XMLSchema-instance" xmlns:xsd="http://www.w3.org/2001/XMLSchema" version="1.1" creator="Shapelink.com" xmlns="http://www.topografix.com/GPX/1/1" xmlns:gpxtpx="http://www.garmin.com/xmlschemas/TrackPointExtension/v1">
  <metadata>
    <name>Esquí nórdico 4.35 km, 2020-01-02</name>
    <desc></desc>
    <author><name>Per Rooth</name></author> 
    <time>2020-01-02T16:09:05Z</time>
  </metadata>
  <trk>
    <name>Esquí nórdico 4.35 km, 2020-01-02</name>
    <trkseg>
      <trkpt lat="61.303350705241" lon="12.242437597475">
        <ele>443</ele>
        <time>2020-01-02T16:09:05Z</time>
      </trkpt>
      <trkpt lat="61.303363613367" lon="12.242909582264">
        <ele>443</ele>
        <time>2020-01-02T16:09:10Z</time>
      </trkpt>
      <trkpt lat="61.303337629477" lon="12.243152741183">
        <ele>443.2</ele>
        <time>2020-01-02T16:09:12Z</time>
      </trkpt>
      <trkpt lat="61.303268394983" lon="12.243351476032">
        <ele>442.6</ele>
        <time>2020-01-02T16:09:14Z</time>
      </trkpt>
      <trkpt lat="61.303180049757" lon="12.243440994724">
        <ele>441.6</ele>
        <time>2020-01-02T16:09:16Z</time>
      </trkpt>
      <trkpt lat="61.303102265725" lon="12.243482233672">
        <ele>440.6</ele>
        <time>2020-01-02T16:09:18Z</time>
      </trkpt>
      <trkpt lat="61.303065720641" lon="12.243484832061">
        <ele>440</ele>
        <time>2020-01-02T16:09:19Z</time>
      </trkpt>
      <trkpt lat="61.302997743432" lon="12.243481982215">
        <ele>438.6</ele>
        <time>2020-01-02T16:09:21Z</time>
      </trkpt>
      <trkpt lat="61.30265257679" lon="12.243592120381">
        <ele>439.6</ele>
        <time>2020-01-02T16:09:32Z</time>
      </trkpt>
      <trkpt lat="61.302191991385" lon="12.24382270645">
        <ele>440</ele>
        <time>2020-01-02T16:09:47Z</time>
      </trkpt>
      <trkpt lat="61.301941707851" lon="12.243833183825">
        <ele>440.6</ele>
        <time>2020-01-02T16:09:57Z</time>
      </trkpt>
      <trkpt lat="61.301924105861" lon="12.243827987047">
        <ele>440.8</ele>
        <time>2020-01-02T16:09:58Z</time>
      </trkpt>
      <trkpt lat="61.301454719461" lon="12.243915996997">
        <ele>441.8</ele>
        <time>2020-01-02T16:10:14Z</time>
      </trkpt>
      <trkpt lat="61.301426472458" lon="12.243947429122">
        <ele>442</ele>
        <time>2020-01-02T16:10:15Z</time>
      </trkpt>
      <trkpt lat="61.300992373857" lon="12.244214308818">
        <ele>442</ele>
        <time>2020-01-02T16:10:29Z</time>
      </trkpt>
      <trkpt lat="61.300679645168" lon="12.244244818934">
        <ele>443.2</ele>
        <time>2020-01-02T16:10:42Z</time>
      </trkpt>
      <trkpt lat="61.30052357419" lon="12.244360153878">
        <ele>444.2</ele>
        <time>2020-01-02T16:10:48Z</time>
      </trkpt>
      <trkpt lat="61.300349901222" lon="12.244581184581">
        <ele>444</ele>
        <time>2020-01-02T16:10:54Z</time>
      </trkpt>
      <trkpt lat="61.30016399068" lon="12.24467514568">
        <ele>442.8</ele>
        <time>2020-01-02T16:12:06Z</time>
      </trkpt>
      <trkpt lat="61.300129373433" lon="12.244739099577">
        <ele>443.2</ele>
        <time>2020-01-02T16:12:10Z</time>
      </trkpt>
      <trkpt lat="61.30010447919" lon="12.244772459539">
        <ele>444.2</ele>
        <time>2020-01-02T16:12:11Z</time>
      </trkpt>
      <trkpt lat="61.30007598073" lon="12.244815291048">
        <ele>446</ele>
        <time>2020-01-02T16:12:12Z</time>
      </trkpt>
      <trkpt lat="61.299911360214" lon="12.245055767759">
        <ele>447.2</ele>
        <time>2020-01-02T16:12:17Z</time>
      </trkpt>
      <trkpt lat="61.299880179546" lon="12.245119218742">
        <ele>447.4</ele>
        <time>2020-01-02T16:12:18Z</time>
      </trkpt>
      <trkpt lat="61.299670799684" lon="12.2454613679">
        <ele>446</ele>
        <time>2020-01-02T16:12:25Z</time>
      </trkpt>
      <trkpt lat="61.299224882604" lon="12.245599417793">
        <ele>446.8</ele>
        <time>2020-01-02T16:12:37Z</time>
      </trkpt>
      <trkpt lat="61.299068811626" lon="12.245640153827">
        <ele>447.2</ele>
        <time>2020-01-02T16:12:41Z</time>
      </trkpt>
      <trkpt lat="61.29874493501" lon="12.245709220683">
        <ele>445.6</ele>
        <time>2020-01-02T16:12:48Z</time>
      </trkpt>
      <trkpt lat="61.298611076067" lon="12.245757584246">
        <ele>445.4</ele>
        <time>2020-01-02T16:12:51Z</time>
      </trkpt>
      <trkpt lat="61.298162979693" lon="12.245936956906">
        <ele>446</ele>
        <time>2020-01-02T16:13:03Z</time>
      </trkpt>
      <trkpt lat="61.297810185522" lon="12.246103505259">
        <ele>445.8</ele>
        <time>2020-01-02T16:13:11Z</time>
      </trkpt>
      <trkpt lat="61.297494439349" lon="12.246259576237">
        <ele>444.6</ele>
        <time>2020-01-02T16:13:19Z</time>
      </trkpt>
      <trkpt lat="61.297316323974" lon="12.246293606751">
        <ele>445.8</ele>
        <time>2020-01-02T16:13:25Z</time>
      </trkpt>
      <trkpt lat="61.296939641388" lon="12.246432411015">
        <ele>447</ele>
        <time>2020-01-02T16:13:42Z</time>
      </trkpt>
      <trkpt lat="61.296855319474" lon="12.246468537004">
        <ele>448</ele>
        <time>2020-01-02T16:13:45Z</time>
      </trkpt>
      <trkpt lat="61.296556337101" lon="12.246528970503">
        <ele>448</ele>
        <time>2020-01-02T16:13:55Z</time>
      </trkpt>
      <trkpt lat="61.296104049777" lon="12.246645562732">
        <ele>448.4</ele>
        <time>2020-01-02T16:14:10Z</time>
      </trkpt>
      <trkpt lat="61.295832727674" lon="12.246728208266">
        <ele>449</ele>
        <time>2020-01-02T16:14:21Z</time>
      </trkpt>
      <trkpt lat="61.295716973635" lon="12.246749917387">
        <ele>450</ele>
        <time>2020-01-02T16:14:26Z</time>
      </trkpt>
      <trkpt lat="61.295576995905" lon="12.246805740841">
        <ele>451.2</ele>
        <time>2020-01-02T16:14:32Z</time>
      </trkpt>
      <trkpt lat="61.295123786572" lon="12.246918393577">
        <ele>451.8</ele>
        <time>2020-01-02T16:14:46Z</time>
      </trkpt>
      <trkpt lat="61.29467384618" lon="12.247016629445">
        <ele>451.6</ele>
        <time>2020-01-02T16:14:58Z</time>
      </trkpt>
      <trkpt lat="61.294573095742" lon="12.247047307199">
        <ele>452.4</ele>
        <time>2020-01-02T16:15:01Z</time>
      </trkpt>
      <trkpt lat="61.294327589891" lon="12.247116206417">
        <ele>451.2</ele>
        <time>2020-01-02T16:15:09Z</time>
      </trkpt>
      <trkpt lat="61.294001031067" lon="12.247252663749">
        <ele>452.4</ele>
        <time>2020-01-02T16:15:22Z</time>
      </trkpt>
      <trkpt lat="61.293910506547" lon="12.247320892415">
        <ele>453.4</ele>
        <time>2020-01-02T16:15:26Z</time>
      </trkpt>
      <trkpt lat="61.293667850542" lon="12.247409070003">
        <ele>454.6</ele>
        <time>2020-01-02T16:15:38Z</time>
      </trkpt>
      <trkpt lat="61.293459811784" lon="12.247501689998">
        <ele>455.8</ele>
        <time>2020-01-02T16:15:47Z</time>
      </trkpt>
      <trkpt lat="61.29299495161" lon="12.247666226695">
        <ele>456.8</ele>
        <time>2020-01-02T16:16:06Z</time>
      </trkpt>
      <trkpt lat="61.292977265801" lon="12.247675614423">
        <ele>456.8</ele>
        <time>2020-01-02T16:16:07Z</time>
      </trkpt>
      <trkpt lat="61.292637295937" lon="12.247769659341">
        <ele>458.2</ele>
        <time>2020-01-02T16:16:20Z</time>
      </trkpt>
      <trkpt lat="61.292171681392" lon="12.247810563013">
        <ele>458.2</ele>
        <time>2020-01-02T16:16:33Z</time>
      </trkpt>
      <trkpt lat="61.291724926122" lon="12.247779969078">
        <ele>459.2</ele>
        <time>2020-01-02T16:16:51Z</time>
      </trkpt>
      <trkpt lat="61.291694583644" lon="12.247775778128">
        <ele>459.2</ele>
        <time>2020-01-02T16:16:53Z</time>
      </trkpt>
      <trkpt lat="61.291846882767" lon="12.247520884549">
        <ele>460.4</ele>
        <time>2020-01-02T16:17:04Z</time>
      </trkpt>
      <trkpt lat="61.292045869073" lon="12.247116541693">
        <ele>461.4</ele>
        <time>2020-01-02T16:17:14Z</time>
      </trkpt>
      <trkpt lat="61.292159946732" lon="12.24685024873">
        <ele>462.4</ele>
        <time>2020-01-02T16:17:20Z</time>
      </trkpt>
      <trkpt lat="61.292349964405" lon="12.246359823761">
        <ele>463.4</ele>
        <time>2020-01-02T16:17:33Z</time>
      </trkpt>
      <trkpt lat="61.292452726499" lon="12.246051286022">
        <ele>464.6</ele>
        <time>2020-01-02T16:17:41Z</time>
      </trkpt>
      <trkpt lat="61.292516177482" lon="12.245759260626">
        <ele>465.6</ele>
        <time>2020-01-02T16:17:48Z</time>
      </trkpt>
      <trkpt lat="61.292575437515" lon="12.245352319381">
        <ele>466.6</ele>
        <time>2020-01-02T16:17:58Z</time>
      </trkpt>
      <trkpt lat="61.292595554075" lon="12.245134138524">
        <ele>467.8</ele>
        <time>2020-01-02T16:18:06Z</time>
      </trkpt>
      <trkpt lat="61.292591279306" lon="12.245015199363">
        <ele>468.2</ele>
        <time>2020-01-02T16:18:19Z</time>
      </trkpt>
      <trkpt lat="61.292568983452" lon="12.244940181358">
        <ele>468.6</ele>
        <time>2020-01-02T16:18:23Z</time>
      </trkpt>
      <trkpt lat="61.292569570185" lon="12.244917214952">
        <ele>468.8</ele>
        <time>2020-01-02T16:18:24Z</time>
      </trkpt>
      <trkpt lat="61.292570073099" lon="12.244847729001">
        <ele>469.8</ele>
        <time>2020-01-02T16:18:27Z</time>
      </trkpt>
      <trkpt lat="61.292567726167" lon="12.244631727438">
        <ele>470.8</ele>
        <time>2020-01-02T16:18:36Z</time>
      </trkpt>
      <trkpt lat="61.292559428086" lon="12.244453528244">
        <ele>472.2</ele>
        <time>2020-01-02T16:18:40Z</time>
      </trkpt>
      <trkpt lat="61.292574766963" lon="12.244269629358">
        <ele>473.6</ele>
        <time>2020-01-02T16:18:45Z</time>
      </trkpt>
      <trkpt lat="61.292585244338" lon="12.244104757385">
        <ele>474.8</ele>
        <time>2020-01-02T16:18:49Z</time>
      </trkpt>
      <trkpt lat="61.29259262041" lon="12.243957571221">
        <ele>475.8</ele>
        <time>2020-01-02T16:18:53Z</time>
      </trkpt>
      <trkpt lat="61.29260267869" lon="12.243725141134">
        <ele>477</ele>
        <time>2020-01-02T16:18:59Z</time>
      </trkpt>
      <trkpt lat="61.292612485513" lon="12.243608465086">
        <ele>478.2</ele>
        <time>2020-01-02T16:19:02Z</time>
      </trkpt>
      <trkpt lat="61.292618520481" lon="12.243507127915">
        <ele>479.2</ele>
        <time>2020-01-02T16:19:05Z</time>
      </trkpt>
      <trkpt lat="61.292640816335" lon="12.243285091384">
        <ele>480.6</ele>
        <time>2020-01-02T16:19:12Z</time>
      </trkpt>
      <trkpt lat="61.292705943698" lon="12.243119297402">
        <ele>480.8</ele>
        <time>2020-01-02T16:20:09Z</time>
      </trkpt>
      <trkpt lat="61.292862014676" lon="12.242691317588">
        <ele>481.6</ele>
        <time>2020-01-02T16:20:18Z</time>
      </trkpt>
      <trkpt lat="61.293314134362" lon="12.242397196717">
        <ele>482.4</ele>
        <time>2020-01-02T16:20:33Z</time>
      </trkpt>
      <trkpt lat="61.29375183718" lon="12.242276748814">
        <ele>481</ele>
        <time>2020-01-02T16:20:42Z</time>
      </trkpt>
      <trkpt lat="61.293840182406" lon="12.242212459641">
        <ele>480.8</ele>
        <time>2020-01-02T16:20:44Z</time>
      </trkpt>
      <trkpt lat="61.293933892048" lon="12.242079355069">
        <ele>480.6</ele>
        <time>2020-01-02T16:20:47Z</time>
      </trkpt>
      <trkpt lat="61.294088873379" lon="12.2416476034">
        <ele>481.6</ele>
        <time>2020-01-02T16:20:57Z</time>
      </trkpt>
      <trkpt lat="61.294211249119" lon="12.241349123941">
        <ele>482.6</ele>
        <time>2020-01-02T16:21:05Z</time>
      </trkpt>
      <trkpt lat="61.294345443338" lon="12.241136139862">
        <ele>483.8</ele>
        <time>2020-01-02T16:21:11Z</time>
      </trkpt>
      <trkpt lat="61.294749953832" lon="12.241343256611">
        <ele>482.8</ele>
        <time>2020-01-02T16:21:24Z</time>
      </trkpt>
      <trkpt lat="61.294781385957" lon="12.241411820553">
        <ele>482.4</ele>
        <time>2020-01-02T16:21:25Z</time>
      </trkpt>
      <trkpt lat="61.294891105028" lon="12.241592534317">
        <ele>481.6</ele>
        <time>2020-01-02T16:21:28Z</time>
      </trkpt>
      <trkpt lat="61.294936367288" lon="12.241629414677">
        <ele>481.2</ele>
        <time>2020-01-02T16:21:29Z</time>
      </trkpt>
      <trkpt lat="61.294983222109" lon="12.241645256468">
        <ele>481</ele>
        <time>2020-01-02T16:21:30Z</time>
      </trkpt>
      <trkpt lat="61.295071232059" lon="12.241610387764">
        <ele>480.6</ele>
        <time>2020-01-02T16:21:32Z</time>
      </trkpt>
      <trkpt lat="61.295109956437" lon="12.24157468087">
        <ele>480.2</ele>
        <time>2020-01-02T16:21:33Z</time>
      </trkpt>
      <trkpt lat="61.295532320378" lon="12.241078640028">
        <ele>480</ele>
        <time>2020-01-02T16:21:47Z</time>
      </trkpt>
      <trkpt lat="61.295749327769" lon="12.240822656802">
        <ele>479.2</ele>
        <time>2020-01-02T16:21:53Z</time>
      </trkpt>
      <trkpt lat="61.296138080291" lon="12.240348492719">
        <ele>478.6</ele>
        <time>2020-01-02T16:22:02Z</time>
      </trkpt>
      <trkpt lat="61.296230197372" lon="12.240240114752">
        <ele>477.8</ele>
        <time>2020-01-02T16:22:04Z</time>
      </trkpt>
      <trkpt lat="61.296428513126" lon="12.240005002457">
        <ele>476.8</ele>
        <time>2020-01-02T16:22:09Z</time>
      </trkpt>
      <trkpt lat="61.296827659204" lon="12.239529832546">
        <ele>476.4</ele>
        <time>2020-01-02T16:22:20Z</time>
      </trkpt>
      <trkpt lat="61.297222362875" lon="12.239440984406">
        <ele>478</ele>
        <time>2020-01-02T16:22:35Z</time>
      </trkpt>
      <trkpt lat="61.29758655643" lon="12.239904084381">
        <ele>478.2</ele>
        <time>2020-01-02T16:22:46Z</time>
      </trkpt>
      <trkpt lat="61.297679679339" lon="12.239954124324">
        <ele>478</ele>
        <time>2020-01-02T16:22:48Z</time>
      </trkpt>
      <trkpt lat="61.297768862755" lon="12.239943395492">
        <ele>477.8</ele>
        <time>2020-01-02T16:22:50Z</time>
      </trkpt>
      <trkpt lat="61.297935075832" lon="12.239781121908">
        <ele>477</ele>
        <time>2020-01-02T16:22:56Z</time>
      </trkpt>
      <trkpt lat="61.298175049629" lon="12.239525390139">
        <ele>478</ele>
        <time>2020-01-02T16:23:06Z</time>
      </trkpt>
      <trkpt lat="61.298660529277" lon="12.239599150859">
        <ele>478</ele>
        <time>2020-01-02T16:23:17Z</time>
      </trkpt>
      <trkpt lat="61.298820120653" lon="12.239684227144">
        <ele>476.6</ele>
        <time>2020-01-02T16:23:19Z</time>
      </trkpt>
      <trkpt lat="61.298976694545" lon="12.239790677274">
        <ele>474.8</ele>
        <time>2020-01-02T16:23:21Z</time>
      </trkpt>
      <trkpt lat="61.299120025035" lon="12.239920512905">
        <ele>473.2</ele>
        <time>2020-01-02T16:23:23Z</time>
      </trkpt>
      <trkpt lat="61.299302247541" lon="12.240116146451">
        <ele>472</ele>
        <time>2020-01-02T16:23:26Z</time>
      </trkpt>
      <trkpt lat="61.299399058486" lon="12.240291244342">
        <ele>470.2</ele>
        <time>2020-01-02T16:23:28Z</time>
      </trkpt>
      <trkpt lat="61.299443314918" lon="12.240391408047">
        <ele>468.6</ele>
        <time>2020-01-02T16:23:29Z</time>
      </trkpt>
      <trkpt lat="61.299533755619" lon="12.240618389899">
        <ele>467.4</ele>
        <time>2020-01-02T16:23:31Z</time>
      </trkpt>
      <trkpt lat="61.299630650383" lon="12.240851155262">
        <ele>466.4</ele>
        <time>2020-01-02T16:23:33Z</time>
      </trkpt>
      <trkpt lat="61.299688988407" lon="12.240946792741">
        <ele>466.2</ele>
        <time>2020-01-02T16:23:34Z</time>
      </trkpt>
      <trkpt lat="61.299754031951" lon="12.2410021971">
        <ele>466</ele>
        <time>2020-01-02T16:23:35Z</time>
      </trkpt>
      <trkpt lat="61.299879341356" lon="12.241073359431">
        <ele>464.8</ele>
        <time>2020-01-02T16:23:37Z</time>
      </trkpt>
      <trkpt lat="61.299994760119" lon="12.241175618611">
        <ele>463.2</ele>
        <time>2020-01-02T16:23:39Z</time>
      </trkpt>
      <trkpt lat="61.300075477816" lon="12.241365301008">
        <ele>461.8</ele>
        <time>2020-01-02T16:23:41Z</time>
      </trkpt>
      <trkpt lat="61.300109424511" lon="12.241637796577">
        <ele>460</ele>
        <time>2020-01-02T16:23:43Z</time>
      </trkpt>
      <trkpt lat="61.300105987932" lon="12.241785485655">
        <ele>458.6</ele>
        <time>2020-01-02T16:23:44Z</time>
      </trkpt>
      <trkpt lat="61.300092576892" lon="12.241929151421">
        <ele>457.6</ele>
        <time>2020-01-02T16:23:45Z</time>
      </trkpt>
      <trkpt lat="61.300040357655" lon="12.242190666701">
        <ele>456</ele>
        <time>2020-01-02T16:23:47Z</time>
      </trkpt>
      <trkpt lat="61.299895350785" lon="12.242558296835">
        <ele>455.8</ele>
        <time>2020-01-02T16:23:51Z</time>
      </trkpt>
      <trkpt lat="61.299867019963" lon="12.24273557402">
        <ele>456.4</ele>
        <time>2020-01-02T16:23:53Z</time>
      </trkpt>
      <trkpt lat="61.299895266966" lon="12.242921316924">
        <ele>457</ele>
        <time>2020-01-02T16:23:55Z</time>
      </trkpt>
      <trkpt lat="61.299974475921" lon="12.243104293801">
        <ele>457</ele>
        <time>2020-01-02T16:23:57Z</time>
      </trkpt>
      <trkpt lat="61.300108167226" lon="12.243272099439">
        <ele>456.6</ele>
        <time>2020-01-02T16:23:59Z</time>
      </trkpt>
      <trkpt lat="61.30024780968" lon="12.243404784916">
        <ele>455.4</ele>
        <time>2020-01-02T16:24:01Z</time>
      </trkpt>
      <trkpt lat="61.300320396934" lon="12.243468738813">
        <ele>453.4</ele>
        <time>2020-01-02T16:24:02Z</time>
      </trkpt>
      <trkpt lat="61.300390888713" lon="12.243531603063">
        <ele>450.8</ele>
        <time>2020-01-02T16:24:03Z</time>
      </trkpt>
      <trkpt lat="61.300462134863" lon="12.243588264707">
        <ele>448.6</ele>
        <time>2020-01-02T16:24:04Z</time>
      </trkpt>
      <trkpt lat="61.300533967746" lon="12.243646351274">
        <ele>447.4</ele>
        <time>2020-01-02T16:24:05Z</time>
      </trkpt>
      <trkpt lat="61.300748460567" lon="12.243761770037">
        <ele>446.2</ele>
        <time>2020-01-02T16:24:08Z</time>
      </trkpt>
      <trkpt lat="61.300815683405" lon="12.243782808606">
        <ele>446.6</ele>
        <time>2020-01-02T16:24:09Z</time>
      </trkpt>
      <trkpt lat="61.301227318514" lon="12.243825137201">
        <ele>444.8</ele>
        <time>2020-01-02T16:24:15Z</time>
      </trkpt>
      <trkpt lat="61.301289512212" lon="12.24382019188">
        <ele>444.2</ele>
        <time>2020-01-02T16:24:16Z</time>
      </trkpt>
      <trkpt lat="61.301411468857" lon="12.243748526635">
        <ele>443.6</ele>
        <time>2020-01-02T16:24:18Z</time>
      </trkpt>
      <trkpt lat="61.301520433557" lon="12.243580301902">
        <ele>444.8</ele>
        <time>2020-01-02T16:24:21Z</time>
      </trkpt>
      <trkpt lat="61.301948413371" lon="12.243292215999">
        <ele>445.6</ele>
        <time>2020-01-02T16:24:34Z</time>
      </trkpt>
      <trkpt lat="61.301984790817" lon="12.243264974824">
        <ele>445.8</ele>
        <time>2020-01-02T16:24:35Z</time>
      </trkpt>
      <trkpt lat="61.302227949736" lon="12.243066826708">
        <ele>446.2</ele>
        <time>2020-01-02T16:24:42Z</time>
      </trkpt>
      <trkpt lat="61.302452333199" lon="12.242930285557">
        <ele>445.4</ele>
        <time>2020-01-02T16:24:47Z</time>
      </trkpt>
      <trkpt lat="61.302888443456" lon="12.242586040924">
        <ele>445</ele>
        <time>2020-01-02T16:24:57Z</time>
      </trkpt>
      <trkpt lat="61.303314327795" lon="12.242216650591">
        <ele>444.8</ele>
        <time>2020-01-02T16:25:10Z</time>
      </trkpt>
      <trkpt lat="61.303399655537" lon="12.242141129672">
        <ele>445</ele>
        <time>2020-01-02T16:25:15Z</time>
      </trkpt>
      <trkpt lat="61.303241069989" lon="12.242539772836">
        <ele>444.6</ele>
        <time>2020-01-02T16:27:56Z</time>
      </trkpt>
      <trkpt lat="61.303232939546" lon="12.242542957958">
        <ele>444.8</ele>
        <time>2020-01-02T16:27:57Z</time>
      </trkpt>
      <trkpt lat="61.30321416409" lon="12.242556033722">
        <ele>444.6</ele>
        <time>2020-01-02T16:27:59Z</time>
      </trkpt>
      <trkpt lat="61.303185497992" lon="12.242577659024">
        <ele>445.4</ele>
        <time>2020-01-02T16:28:01Z</time>
      </trkpt>
      <trkpt lat="61.303018782001" lon="12.242727778853">
        <ele>446</ele>
        <time>2020-01-02T16:28:08Z</time>
      </trkpt>
      <trkpt lat="61.302595412232" lon="12.24312365599">
        <ele>446.2</ele>
        <time>2020-01-02T16:28:22Z</time>
      </trkpt>
      <trkpt lat="61.30213708994" lon="12.243366898728">
        <ele>446.8</ele>
        <time>2020-01-02T16:28:38Z</time>
      </trkpt>
      <trkpt lat="61.302111776602" lon="12.243381231777">
        <ele>447.2</ele>
        <time>2020-01-02T16:28:39Z</time>
      </trkpt>
      <trkpt lat="61.30164088146" lon="12.243531435425">
        <ele>447.6</ele>
        <time>2020-01-02T16:28:54Z</time>
      </trkpt>
      <trkpt lat="61.301445164095" lon="12.243707120049">
        <ele>446</ele>
        <time>2020-01-02T16:29:01Z</time>
      </trkpt>
      <trkpt lat="61.301364781674" lon="12.243774510525">
        <ele>444.8</ele>
        <time>2020-01-02T16:29:06Z</time>
      </trkpt>
      <trkpt lat="61.301044006361" lon="12.243743832771">
        <ele>446</ele>
        <time>2020-01-02T16:29:18Z</time>
      </trkpt>
      <trkpt lat="61.300957086058" lon="12.243737043432">
        <ele>447.2</ele>
        <time>2020-01-02T16:29:22Z</time>
      </trkpt>
      <trkpt lat="61.300872093592" lon="12.243721117822">
        <ele>448.6</ele>
        <time>2020-01-02T16:29:27Z</time>
      </trkpt>
      <trkpt lat="61.300821466916" lon="12.243697983778">
        <ele>449.8</ele>
        <time>2020-01-02T16:29:30Z</time>
      </trkpt>
      <trkpt lat="61.300462805415" lon="12.243411825712">
        <ele>450.8</ele>
        <time>2020-01-02T16:29:48Z</time>
      </trkpt>
      <trkpt lat="61.300211180777" lon="12.243196829977">
        <ele>452</ele>
        <time>2020-01-02T16:29:59Z</time>
      </trkpt>
      <trkpt lat="61.300029125909" lon="12.243053415668">
        <ele>453.2</ele>
        <time>2020-01-02T16:30:08Z</time>
      </trkpt>
      <trkpt lat="61.299922508141" lon="12.242895333034">
        <ele>454.2</ele>
        <time>2020-01-02T16:30:16Z</time>
      </trkpt>
      <trkpt lat="61.299901050477" lon="12.242824170703">
        <ele>455.4</ele>
        <time>2020-01-02T16:30:18Z</time>
      </trkpt>
      <trkpt lat="61.29988319703" lon="12.242703303705">
        <ele>456.6</ele>
        <time>2020-01-02T16:30:21Z</time>
      </trkpt>
      <trkpt lat="61.300064497527" lon="12.241878189469">
        <ele>457.4</ele>
        <time>2020-01-02T16:30:53Z</time>
      </trkpt>
      <trkpt lat="61.300069526667" lon="12.24181021226">
        <ele>457.6</ele>
        <time>2020-01-02T16:30:55Z</time>
      </trkpt>
      <trkpt lat="61.300084278811" lon="12.241544841306">
        <ele>458.8</ele>
        <time>2020-01-02T16:31:02Z</time>
      </trkpt>
      <trkpt lat="61.300052846686" lon="12.241238901956">
        <ele>459.8</ele>
        <time>2020-01-02T16:31:10Z</time>
      </trkpt>
      <trkpt lat="61.299978247776" lon="12.241059445477">
        <ele>460.8</ele>
        <time>2020-01-02T16:31:16Z</time>
      </trkpt>
      <trkpt lat="61.299861152633" lon="12.240962550713">
        <ele>461.8</ele>
        <time>2020-01-02T16:31:23Z</time>
      </trkpt>
      <trkpt lat="61.299567618495" lon="12.240704891107">
        <ele>463</ele>
        <time>2020-01-02T16:31:39Z</time>
      </trkpt>
      <trkpt lat="61.299522440054" lon="12.240607912524">
        <ele>464.2</ele>
        <time>2020-01-02T16:31:43Z</time>
      </trkpt>
      <trkpt lat="61.299461838917" lon="12.24043558066">
        <ele>465.2</ele>
        <time>2020-01-02T16:31:49Z</time>
      </trkpt>
      <trkpt lat="61.299427556946" lon="12.24032074863">
        <ele>466.2</ele>
        <time>2020-01-02T16:31:54Z</time>
      </trkpt>
      <trkpt lat="61.299412050431" lon="12.240237851639">
        <ele>467.4</ele>
        <time>2020-01-02T16:32:01Z</time>
      </trkpt>
      <trkpt lat="61.299399645219" lon="12.240085049602">
        <ele>467.2</ele>
        <time>2020-01-02T16:32:57Z</time>
      </trkpt>
      <trkpt lat="61.29940207597" lon="12.240047163414">
        <ele>467.4</ele>
        <time>2020-01-02T16:32:59Z</time>
      </trkpt>
      <trkpt lat="61.299399226124" lon="12.240003242258">
        <ele>467.6</ele>
        <time>2020-01-02T16:33:02Z</time>
      </trkpt>
      <trkpt lat="61.299388497292" lon="12.239962925319">
        <ele>467.6</ele>
        <time>2020-01-02T16:33:05Z</time>
      </trkpt>
      <trkpt lat="61.299377097908" lon="12.239920848181">
        <ele>468</ele>
        <time>2020-01-02T16:33:08Z</time>
      </trkpt>
      <trkpt lat="61.299348515629" lon="12.239801238468">
        <ele>468.4</ele>
        <time>2020-01-02T16:33:20Z</time>
      </trkpt>
      <trkpt lat="61.299375589166" lon="12.239871897885">
        <ele>468.8</ele>
        <time>2020-01-02T16:33:40Z</time>
      </trkpt>
      <trkpt lat="61.2993827976" lon="12.239913807385">
        <ele>468.8</ele>
        <time>2020-01-02T16:33:42Z</time>
      </trkpt>
      <trkpt lat="61.299390592767" lon="12.23992512295">
        <ele>468.4</ele>
        <time>2020-01-02T16:33:53Z</time>
      </trkpt>
      <trkpt lat="61.29940961968" lon="12.240011288882">
        <ele>468.4</ele>
        <time>2020-01-02T16:34:41Z</time>
      </trkpt>
      <trkpt lat="61.299486146427" lon="12.240515041072">
        <ele>468.4</ele>
        <time>2020-01-02T16:34:48Z</time>
      </trkpt>
      <trkpt lat="61.299549765048" lon="12.240722660735">
        <ele>468.4</ele>
        <time>2020-01-02T16:34:50Z</time>
      </trkpt>
      <trkpt lat="61.299712625365" lon="12.240983254006">
        <ele>467.2</ele>
        <time>2020-01-02T16:34:53Z</time>
      </trkpt>
      <trkpt lat="61.299768029724" lon="12.241013345027">
        <ele>466.8</ele>
        <time>2020-01-02T16:34:54Z</time>
      </trkpt>
      <trkpt lat="61.299844388833" lon="12.241037736356">
        <ele>465.4</ele>
        <time>2020-01-02T16:34:56Z</time>
      </trkpt>
      <trkpt lat="61.299899541735" lon="12.241056847088">
        <ele>463.8</ele>
        <time>2020-01-02T16:34:58Z</time>
      </trkpt>
      <trkpt lat="61.299977661043" lon="12.241122225908">
        <ele>462.6</ele>
        <time>2020-01-02T16:35:01Z</time>
      </trkpt>
      <trkpt lat="61.300078160024" lon="12.241354320719">
        <ele>462</ele>
        <time>2020-01-02T16:35:05Z</time>
      </trkpt>
      <trkpt lat="61.300101713163" lon="12.24153947689">
        <ele>461.6</ele>
        <time>2020-01-02T16:35:07Z</time>
      </trkpt>
      <trkpt lat="61.300103641" lon="12.241631593971">
        <ele>461.2</ele>
        <time>2020-01-02T16:35:08Z</time>
      </trkpt>
      <trkpt lat="61.300101880801" lon="12.241718262817">
        <ele>460.8</ele>
        <time>2020-01-02T16:35:09Z</time>
      </trkpt>
      <trkpt lat="61.300096013471" lon="12.241949184162">
        <ele>460.2</ele>
        <time>2020-01-02T16:35:12Z</time>
      </trkpt>
      <trkpt lat="61.300186035077" lon="12.242165185725">
        <ele>459.2</ele>
        <time>2020-01-02T16:35:19Z</time>
      </trkpt>
      <trkpt lat="61.300370436877" lon="12.242116822162">
        <ele>460.2</ele>
        <time>2020-01-02T16:35:29Z</time>
      </trkpt>
      <trkpt lat="61.300480407405" lon="12.242066195486">
        <ele>461</ele>
        <time>2020-01-02T16:35:36Z</time>
      </trkpt>
      <trkpt lat="61.300545618587" lon="12.242198210411">
        <ele>460.6</ele>
        <time>2020-01-02T16:35:51Z</time>
      </trkpt>
      <trkpt lat="61.300571267201" lon="12.242249172363">
        <ele>460.8</ele>
        <time>2020-01-02T16:35:53Z</time>
      </trkpt>
      <trkpt lat="61.300818952346" lon="12.242458887501">
        <ele>460.6</ele>
        <time>2020-01-02T16:35:59Z</time>
      </trkpt>
      <trkpt lat="61.301005868716" lon="12.24257464154">
        <ele>457.6</ele>
        <time>2020-01-02T16:36:01Z</time>
      </trkpt>
      <trkpt lat="61.301102847299" lon="12.242637589609">
        <ele>454.8</ele>
        <time>2020-01-02T16:36:02Z</time>
      </trkpt>
      <trkpt lat="61.301205106479" lon="12.242717804392">
        <ele>453.4</ele>
        <time>2020-01-02T16:36:03Z</time>
      </trkpt>
      <trkpt lat="61.301313819722" lon="12.24279676189">
        <ele>452.4</ele>
        <time>2020-01-02T16:36:04Z</time>
      </trkpt>
      <trkpt lat="61.301760910268" lon="12.243176964874">
        <ele>451.8</ele>
        <time>2020-01-02T16:36:10Z</time>
      </trkpt>
      <trkpt lat="61.301822433414" lon="12.243223316781">
        <ele>451.2</ele>
        <time>2020-01-02T16:36:11Z</time>
      </trkpt>
      <trkpt lat="61.301888482786" lon="12.243261202969">
        <ele>450.8</ele>
        <time>2020-01-02T16:36:12Z</time>
      </trkpt>
      <trkpt lat="61.301951598493" lon="12.243285175203">
        <ele>450.2</ele>
        <time>2020-01-02T16:36:13Z</time>
      </trkpt>
      <trkpt lat="61.302025023937" lon="12.243286516307">
        <ele>450</ele>
        <time>2020-01-02T16:36:14Z</time>
      </trkpt>
      <trkpt lat="61.302221663311" lon="12.24319322576">
        <ele>448.8</ele>
        <time>2020-01-02T16:36:17Z</time>
      </trkpt>
      <trkpt lat="61.302391396786" lon="12.242996586386">
        <ele>447.6</ele>
        <time>2020-01-02T16:36:20Z</time>
      </trkpt>
      <trkpt lat="61.302490554663" lon="12.24289734469">
        <ele>446.8</ele>
        <time>2020-01-02T16:36:22Z</time>
      </trkpt>
      <trkpt lat="61.302591640377" lon="12.242827188187">
        <ele>446.6</ele>
        <time>2020-01-02T16:36:24Z</time>
      </trkpt>
      <trkpt lat="61.303024816969" lon="12.242470370704">
        <ele>445.6</ele>
        <time>2020-01-02T16:36:34Z</time>
      </trkpt>
      <trkpt lat="61.303049711212" lon="12.242430556679">
        <ele>445.4</ele>
        <time>2020-01-02T16:36:35Z</time>
      </trkpt>
      <trkpt lat="61.30334073078" lon="12.242188319769">
        <ele>446</ele>
        <time>2020-01-02T16:36:45Z</time>
      </trkpt>
      <trkpt lat="61.303377694959" lon="12.242186308113">
        <ele>446</ele>
        <time>2020-01-02T16:36:47Z</time>
      </trkpt>
      <trkpt lat="61.303526054589" lon="12.242237437703">
        <ele>446.2</ele>
        <time>2020-01-02T16:37:16Z</time>
      </trkpt>
      <trkpt lat="61.303623033172" lon="12.242322178712">
        <ele>445.2</ele>
        <time>2020-01-02T16:37:22Z</time>
      </trkpt>
      <trkpt lat="61.303567712632" lon="12.242289070207">
        <ele>445.4</ele>
        <time>2020-01-02T16:38:13Z</time>
      </trkpt>
      <trkpt lat="61.303536448145" lon="12.242300301953">
        <ele>445.6</ele>
        <time>2020-01-02T16:38:16Z</time>
      </trkpt>
      <trkpt lat="61.303528569159" lon="12.242309019129">
        <ele>445.8</ele>
        <time>2020-01-02T16:38:18Z</time>
      </trkpt>
      <trkpt lat="61.303528066245" lon="12.242286974732">
        <ele>445.2</ele>
        <time>2020-01-02T16:40:41Z</time>
      </trkpt>
    </trkseg>
  </trk>
</gpx>